sensor_id;sensor_type;location;lat;lon;timestamp;temperature;humidity
37050;DHT22;22958;51.232;6.826;2022-07-11T00:00:02;18.40;99.90
37050;DHT22;22958;51.232;6.826;2022-07-11T00:02:28;18.30;99.90
37050;DHT22;22958;51.232;6.826;2022-07-11T00:04:53;18.30;99.90
37050;DHT22;22958;51.232;6.826;2022-07-11T00:07:19;18.30;99.90
37050;DHT22;22958;51.232;6.826;2022-07-11T00:09:45;18.30;99.90
37050;DHT22;22958;51.232;6.826;2022-07-11T00:12:12;18.30;99.90
37050;DHT22;22958;51.232;6.826;2022-07-11T00:14:38;18.20;99.90
37050;DHT22;22958;51.232;6.826;2022-07-11T00:17:06;18.20;99.90
37050;DHT22;22958;51.232;6.826;2022-07-11T00:19:32;18.20;99.90
37050;DHT22;22958;51.232;6.826;2022-07-11T00:21:58;18.20;99.90
37050;DHT22;22958;51.232;6.826;2022-07-11T00:24:23;18.10;99.90
37050;DHT22;22958;51.232;6.826;2022-07-11T00:26:50;18.10;99.90
37050;DHT22;22958;51.232;6.826;2022-07-11T00:29:16;18.10;99.90
37050;DHT22;22958;51.232;6.826;2022-07-11T00:31:41;18.10;99.90
37050;DHT22;22958;51.232;6.826;2022-07-11T00:34:07;18.10;99.90
37050;DHT22;22958;51.232;6.826;2022-07-11T00:36:33;18.10;99.90
37050;DHT22;22958;51.232;6.826;2022-07-11T00:38:59;18.00;99.90
37050;DHT22;22958;51.232;6.826;2022-07-11T00:41:25;18.00;99.90
37050;DHT22;22958;51.232;6.826;2022-07-11T00:43:53;18.00;99.90
37050;DHT22;22958;51.232;6.826;2022-07-11T00:46:19;18.00;99.90
37050;DHT22;22958;51.232;6.826;2022-07-11T00:48:45;18.00;99.90
37050;DHT22;22958;51.232;6.826;2022-07-11T00:51:11;17.90;99.90
37050;DHT22;22958;51.232;6.826;2022-07-11T00:53:37;17.90;99.90
37050;DHT22;22958;51.232;6.826;2022-07-11T00:56:04;17.80;99.90
37050;DHT22;22958;51.232;6.826;2022-07-11T00:58:30;17.80;99.90
37050;DHT22;22958;51.232;6.826;2022-07-11T01:00:57;17.70;99.90
37050;DHT22;22958;51.232;6.826;2022-07-11T01:03:22;17.60;99.90
37050;DHT22;22958;51.232;6.826;2022-07-11T01:05:48;17.50;99.90
37050;DHT22;22958;51.232;6.826;2022-07-11T01:08:13;17.50;99.90
37050;DHT22;22958;51.232;6.826;2022-07-11T01:10:39;17.50;99.90
37050;DHT22;22958;51.232;6.826;2022-07-11T01:13:04;17.40;99.90
37050;DHT22;22958;51.232;6.826;2022-07-11T01:15:34;17.30;99.90
37050;DHT22;22958;51.232;6.826;2022-07-11T01:18:01;17.30;99.90
37050;DHT22;22958;51.232;6.826;2022-07-11T01:20:26;17.20;99.90
37050;DHT22;22958;51.232;6.826;2022-07-11T01:22:55;17.20;99.90
37050;DHT22;22958;51.232;6.826;2022-07-11T01:25:22;17.20;99.90
37050;DHT22;22958;51.232;6.826;2022-07-11T01:28:02;17.10;99.90
37050;DHT22;22958;51.232;6.826;2022-07-11T01:30:29;17.10;99.90
37050;DHT22;22958;51.232;6.826;2022-07-11T01:32:55;17.00;99.90
37050;DHT22;22958;51.232;6.826;2022-07-11T01:35:22;17.00;99.90
37050;DHT22;22958;51.232;6.826;2022-07-11T01:37:48;16.90;99.90
37050;DHT22;22958;51.232;6.826;2022-07-11T01:40:14;16.90;99.90
37050;DHT22;22958;51.232;6.826;2022-07-11T01:42:40;16.90;99.90
37050;DHT22;22958;51.232;6.826;2022-07-11T01:45:07;16.80;99.90
37050;DHT22;22958;51.232;6.826;2022-07-11T01:47:32;16.80;99.90
37050;DHT22;22958;51.232;6.826;2022-07-11T01:49:58;16.80;99.90
37050;DHT22;22958;51.232;6.826;2022-07-11T01:52:24;16.80;99.90
37050;DHT22;22958;51.232;6.826;2022-07-11T01:54:49;16.70;99.90
37050;DHT22;22958;51.232;6.826;2022-07-11T01:57:15;16.70;99.90
37050;DHT22;22958;51.232;6.826;2022-07-11T01:59:41;16.70;99.90
37050;DHT22;22958;51.232;6.826;2022-07-11T02:02:06;16.60;99.90
37050;DHT22;22958;51.232;6.826;2022-07-11T02:04:32;16.60;99.90
37050;DHT22;22958;51.232;6.826;2022-07-11T02:06:58;16.50;99.90
37050;DHT22;22958;51.232;6.826;2022-07-11T02:09:23;16.50;99.90
37050;DHT22;22958;51.232;6.826;2022-07-11T02:11:49;16.40;99.90
37050;DHT22;22958;51.232;6.826;2022-07-11T02:14:14;16.40;99.90
37050;DHT22;22958;51.232;6.826;2022-07-11T02:16:40;16.30;99.90
37050;DHT22;22958;51.232;6.826;2022-07-11T02:19:06;16.30;99.90
37050;DHT22;22958;51.232;6.826;2022-07-11T02:21:32;16.20;99.90
37050;DHT22;22958;51.232;6.826;2022-07-11T02:23:58;16.20;99.90
37050;DHT22;22958;51.232;6.826;2022-07-11T02:26:24;16.20;99.90
37050;DHT22;22958;51.232;6.826;2022-07-11T02:28:50;16.10;99.90
37050;DHT22;22958;51.232;6.826;2022-07-11T02:31:15;16.10;99.90
37050;DHT22;22958;51.232;6.826;2022-07-11T02:33:41;16.10;99.90
37050;DHT22;22958;51.232;6.826;2022-07-11T02:36:07;16.00;99.90
37050;DHT22;22958;51.232;6.826;2022-07-11T02:38:33;16.00;99.90
37050;DHT22;22958;51.232;6.826;2022-07-11T02:40:59;16.00;99.90
37050;DHT22;22958;51.232;6.826;2022-07-11T02:43:25;16.00;99.90
37050;DHT22;22958;51.232;6.826;2022-07-11T02:45:51;16.00;99.90
37050;DHT22;22958;51.232;6.826;2022-07-11T02:48:17;16.00;99.90
37050;DHT22;22958;51.232;6.826;2022-07-11T02:50:42;16.00;99.90
37050;DHT22;22958;51.232;6.826;2022-07-11T02:53:08;16.00;99.90
37050;DHT22;22958;51.232;6.826;2022-07-11T02:55:33;16.10;99.90
37050;DHT22;22958;51.232;6.826;2022-07-11T02:57:59;16.10;99.90
37050;DHT22;22958;51.232;6.826;2022-07-11T03:00:24;16.20;99.90
37050;DHT22;22958;51.232;6.826;2022-07-11T03:02:50;16.20;99.90
37050;DHT22;22958;51.232;6.826;2022-07-11T03:05:16;16.30;99.90
37050;DHT22;22958;51.232;6.826;2022-07-11T03:07:41;16.30;99.90
37050;DHT22;22958;51.232;6.826;2022-07-11T03:10:07;16.30;99.90
37050;DHT22;22958;51.232;6.826;2022-07-11T03:12:33;16.40;99.90
37050;DHT22;22958;51.232;6.826;2022-07-11T03:14:58;16.40;99.90
37050;DHT22;22958;51.232;6.826;2022-07-11T03:17:24;16.40;99.90
37050;DHT22;22958;51.232;6.826;2022-07-11T03:19:50;16.40;99.90
37050;DHT22;22958;51.232;6.826;2022-07-11T03:22:16;16.50;99.90
37050;DHT22;22958;51.232;6.826;2022-07-11T03:24:42;16.50;99.90
37050;DHT22;22958;51.232;6.826;2022-07-11T03:27:08;16.50;99.90
37050;DHT22;22958;51.232;6.826;2022-07-11T03:29:33;16.50;99.90
37050;DHT22;22958;51.232;6.826;2022-07-11T03:31:59;16.50;99.90
37050;DHT22;22958;51.232;6.826;2022-07-11T03:34:25;16.60;99.90
37050;DHT22;22958;51.232;6.826;2022-07-11T03:36:50;16.60;99.90
37050;DHT22;22958;51.232;6.826;2022-07-11T03:39:16;16.70;99.90
37050;DHT22;22958;51.232;6.826;2022-07-11T03:41:42;16.80;99.90
37050;DHT22;22958;51.232;6.826;2022-07-11T03:44:08;16.80;99.90
37050;DHT22;22958;51.232;6.826;2022-07-11T03:46:34;16.80;99.90
37050;DHT22;22958;51.232;6.826;2022-07-11T03:49:00;16.80;99.90
37050;DHT22;22958;51.232;6.826;2022-07-11T03:51:25;16.90;99.90
37050;DHT22;22958;51.232;6.826;2022-07-11T03:53:51;16.90;99.90
37050;DHT22;22958;51.232;6.826;2022-07-11T03:56:16;16.90;99.90
37050;DHT22;22958;51.232;6.826;2022-07-11T03:58:46;16.90;99.90
37050;DHT22;22958;51.232;6.826;2022-07-11T04:01:11;17.00;99.90
37050;DHT22;22958;51.232;6.826;2022-07-11T04:03:37;16.90;99.90
37050;DHT22;22958;51.232;6.826;2022-07-11T04:06:02;17.00;99.90
37050;DHT22;22958;51.232;6.826;2022-07-11T04:08:28;17.00;99.90
37050;DHT22;22958;51.232;6.826;2022-07-11T04:10:53;17.00;99.90
37050;DHT22;22958;51.232;6.826;2022-07-11T04:13:19;17.00;99.90
37050;DHT22;22958;51.232;6.826;2022-07-11T04:15:44;17.00;99.90
37050;DHT22;22958;51.232;6.826;2022-07-11T04:18:10;17.10;99.90
37050;DHT22;22958;51.232;6.826;2022-07-11T04:20:35;17.00;99.90
37050;DHT22;22958;51.232;6.826;2022-07-11T04:23:01;17.00;99.90
37050;DHT22;22958;51.232;6.826;2022-07-11T04:25:26;17.00;99.90
37050;DHT22;22958;51.232;6.826;2022-07-11T04:27:52;17.10;99.90
37050;DHT22;22958;51.232;6.826;2022-07-11T04:30:17;17.00;99.90
37050;DHT22;22958;51.232;6.826;2022-07-11T04:32:43;17.00;99.90
37050;DHT22;22958;51.232;6.826;2022-07-11T04:35:08;17.00;99.90
37050;DHT22;22958;51.232;6.826;2022-07-11T04:37:34;17.10;99.90
37050;DHT22;22958;51.232;6.826;2022-07-11T04:39:59;17.20;99.90
37050;DHT22;22958;51.232;6.826;2022-07-11T04:42:25;17.10;99.90
37050;DHT22;22958;51.232;6.826;2022-07-11T04:44:50;17.20;99.90
37050;DHT22;22958;51.232;6.826;2022-07-11T04:47:16;17.20;99.90
37050;DHT22;22958;51.232;6.826;2022-07-11T04:49:41;17.20;99.90
37050;DHT22;22958;51.232;6.826;2022-07-11T04:52:12;17.20;99.90
37050;DHT22;22958;51.232;6.826;2022-07-11T04:54:37;17.30;99.90
37050;DHT22;22958;51.232;6.826;2022-07-11T04:57:03;17.30;99.90
37050;DHT22;22958;51.232;6.826;2022-07-11T04:59:28;17.40;99.90
37050;DHT22;22958;51.232;6.826;2022-07-11T05:01:54;17.40;99.90
37050;DHT22;22958;51.232;6.826;2022-07-11T05:04:19;17.50;99.90
37050;DHT22;22958;51.232;6.826;2022-07-11T05:06:45;17.60;99.90
37050;DHT22;22958;51.232;6.826;2022-07-11T05:09:10;17.60;99.90
37050;DHT22;22958;51.232;6.826;2022-07-11T05:11:36;17.60;99.90
37050;DHT22;22958;51.232;6.826;2022-07-11T05:14:02;17.70;99.90
37050;DHT22;22958;51.232;6.826;2022-07-11T05:16:27;17.80;99.90
37050;DHT22;22958;51.232;6.826;2022-07-11T05:18:53;17.80;99.90
37050;DHT22;22958;51.232;6.826;2022-07-11T05:21:18;17.70;99.90
37050;DHT22;22958;51.232;6.826;2022-07-11T05:23:48;17.80;99.90
37050;DHT22;22958;51.232;6.826;2022-07-11T05:26:14;17.90;99.90
37050;DHT22;22958;51.232;6.826;2022-07-11T05:28:40;18.10;99.90
37050;DHT22;22958;51.232;6.826;2022-07-11T05:31:06;18.10;99.90
37050;DHT22;22958;51.232;6.826;2022-07-11T05:33:31;17.90;99.90
37050;DHT22;22958;51.232;6.826;2022-07-11T05:35:57;18.00;99.90
37050;DHT22;22958;51.232;6.826;2022-07-11T05:38:22;18.10;99.90
37050;DHT22;22958;51.232;6.826;2022-07-11T05:40:48;18.20;99.90
37050;DHT22;22958;51.232;6.826;2022-07-11T05:43:14;18.40;99.90
37050;DHT22;22958;51.232;6.826;2022-07-11T05:45:39;18.30;99.90
37050;DHT22;22958;51.232;6.826;2022-07-11T05:48:05;18.40;99.90
37050;DHT22;22958;51.232;6.826;2022-07-11T05:50:30;18.30;99.90
37050;DHT22;22958;51.232;6.826;2022-07-11T05:52:56;18.20;99.90
37050;DHT22;22958;51.232;6.826;2022-07-11T05:55:23;18.10;99.90
37050;DHT22;22958;51.232;6.826;2022-07-11T05:57:48;18.00;99.90
37050;DHT22;22958;51.232;6.826;2022-07-11T06:00:14;18.00;99.90
37050;DHT22;22958;51.232;6.826;2022-07-11T06:02:41;18.10;99.90
37050;DHT22;22958;51.232;6.826;2022-07-11T06:05:09;18.10;99.90
37050;DHT22;22958;51.232;6.826;2022-07-11T06:07:37;18.10;99.90
37050;DHT22;22958;51.232;6.826;2022-07-11T06:10:21;18.00;99.90
37050;DHT22;22958;51.232;6.826;2022-07-11T06:12:46;17.90;99.90
37050;DHT22;22958;51.232;6.826;2022-07-11T06:15:12;17.90;99.90
37050;DHT22;22958;51.232;6.826;2022-07-11T06:17:37;17.70;99.90
37050;DHT22;22958;51.232;6.826;2022-07-11T06:20:03;17.80;99.90
37050;DHT22;22958;51.232;6.826;2022-07-11T06:22:29;17.80;99.90
37050;DHT22;22958;51.232;6.826;2022-07-11T06:24:54;17.80;99.90
37050;DHT22;22958;51.232;6.826;2022-07-11T06:27:20;17.70;99.90
37050;DHT22;22958;51.232;6.826;2022-07-11T06:29:45;17.60;99.90
37050;DHT22;22958;51.232;6.826;2022-07-11T06:32:11;17.60;99.90
37050;DHT22;22958;51.232;6.826;2022-07-11T06:34:36;17.60;99.90
37050;DHT22;22958;51.232;6.826;2022-07-11T06:37:03;17.60;99.90
37050;DHT22;22958;51.232;6.826;2022-07-11T06:39:28;17.50;99.90
37050;DHT22;22958;51.232;6.826;2022-07-11T06:41:54;17.70;99.90
37050;DHT22;22958;51.232;6.826;2022-07-11T06:44:19;17.80;99.90
37050;DHT22;22958;51.232;6.826;2022-07-11T06:46:45;18.00;99.90
37050;DHT22;22958;51.232;6.826;2022-07-11T06:49:10;18.00;99.90
37050;DHT22;22958;51.232;6.826;2022-07-11T06:51:38;18.10;99.90
37050;DHT22;22958;51.232;6.826;2022-07-11T06:54:04;18.20;99.90
37050;DHT22;22958;51.232;6.826;2022-07-11T06:56:29;18.10;99.90
37050;DHT22;22958;51.232;6.826;2022-07-11T06:58:55;18.20;99.90
37050;DHT22;22958;51.232;6.826;2022-07-11T07:01:20;18.40;99.90
37050;DHT22;22958;51.232;6.826;2022-07-11T07:03:46;18.50;99.90
37050;DHT22;22958;51.232;6.826;2022-07-11T07:06:11;18.50;99.90
37050;DHT22;22958;51.232;6.826;2022-07-11T07:08:37;18.60;99.90
37050;DHT22;22958;51.232;6.826;2022-07-11T07:11:03;18.50;99.90
37050;DHT22;22958;51.232;6.826;2022-07-11T07:13:29;18.50;99.90
37050;DHT22;22958;51.232;6.826;2022-07-11T07:15:55;18.40;99.90
37050;DHT22;22958;51.232;6.826;2022-07-11T07:18:20;18.30;99.90
37050;DHT22;22958;51.232;6.826;2022-07-11T07:20:46;18.10;99.90
37050;DHT22;22958;51.232;6.826;2022-07-11T07:23:13;18.00;99.90
37050;DHT22;22958;51.232;6.826;2022-07-11T07:25:39;18.10;99.90
37050;DHT22;22958;51.232;6.826;2022-07-11T07:28:05;18.00;99.90
37050;DHT22;22958;51.232;6.826;2022-07-11T07:30:32;18.00;99.90
37050;DHT22;22958;51.232;6.826;2022-07-11T07:32:58;18.10;99.90
37050;DHT22;22958;51.232;6.826;2022-07-11T07:35:23;18.10;99.90
37050;DHT22;22958;51.232;6.826;2022-07-11T07:37:49;18.20;99.90
37050;DHT22;22958;51.232;6.826;2022-07-11T07:40:14;17.90;99.90
37050;DHT22;22958;51.232;6.826;2022-07-11T07:42:40;17.60;99.90
37050;DHT22;22958;51.232;6.826;2022-07-11T07:45:05;17.70;99.90
37050;DHT22;22958;51.232;6.826;2022-07-11T07:47:31;17.70;99.90
37050;DHT22;22958;51.232;6.826;2022-07-11T07:49:57;17.70;99.90
37050;DHT22;22958;51.232;6.826;2022-07-11T07:52:23;17.70;99.90
37050;DHT22;22958;51.232;6.826;2022-07-11T07:54:48;17.50;99.90
37050;DHT22;22958;51.232;6.826;2022-07-11T07:57:14;17.60;99.90
37050;DHT22;22958;51.232;6.826;2022-07-11T07:59:40;17.90;99.90
37050;DHT22;22958;51.232;6.826;2022-07-11T08:02:05;18.10;99.90
37050;DHT22;22958;51.232;6.826;2022-07-11T08:04:31;18.20;99.90
37050;DHT22;22958;51.232;6.826;2022-07-11T08:06:57;18.40;99.90
37050;DHT22;22958;51.232;6.826;2022-07-11T08:09:24;18.70;99.90
37050;DHT22;22958;51.232;6.826;2022-07-11T08:11:50;18.80;99.90
37050;DHT22;22958;51.232;6.826;2022-07-11T08:14:16;19.00;99.90
37050;DHT22;22958;51.232;6.826;2022-07-11T08:16:42;19.30;99.90
37050;DHT22;22958;51.232;6.826;2022-07-11T08:19:07;19.40;99.90
37050;DHT22;22958;51.232;6.826;2022-07-11T08:21:33;19.60;99.90
37050;DHT22;22958;51.232;6.826;2022-07-11T08:23:59;20.00;99.90
37050;DHT22;22958;51.232;6.826;2022-07-11T08:26:25;20.30;99.90
37050;DHT22;22958;51.232;6.826;2022-07-11T08:28:51;20.60;99.90
37050;DHT22;22958;51.232;6.826;2022-07-11T08:31:17;20.30;99.90
37050;DHT22;22958;51.232;6.826;2022-07-11T08:33:43;20.60;99.90
37050;DHT22;22958;51.232;6.826;2022-07-11T08:36:09;20.10;99.90
37050;DHT22;22958;51.232;6.826;2022-07-11T08:38:36;19.50;99.90
37050;DHT22;22958;51.232;6.826;2022-07-11T08:41:01;19.60;99.90
37050;DHT22;22958;51.232;6.826;2022-07-11T08:43:28;19.30;99.90
37050;DHT22;22958;51.232;6.826;2022-07-11T08:45:55;19.40;99.90
37050;DHT22;22958;51.232;6.826;2022-07-11T08:48:23;19.20;99.90
37050;DHT22;22958;51.232;6.826;2022-07-11T08:50:50;19.20;99.90
37050;DHT22;22958;51.232;6.826;2022-07-11T08:53:16;19.10;99.90
37050;DHT22;22958;51.232;6.826;2022-07-11T08:55:42;18.90;99.90
37050;DHT22;22958;51.232;6.826;2022-07-11T08:58:08;18.90;99.90
37050;DHT22;22958;51.232;6.826;2022-07-11T09:00:35;19.10;99.90
37050;DHT22;22958;51.232;6.826;2022-07-11T09:03:01;19.00;99.90
37050;DHT22;22958;51.232;6.826;2022-07-11T09:05:28;19.00;99.90
37050;DHT22;22958;51.232;6.826;2022-07-11T09:07:54;19.20;99.90
37050;DHT22;22958;51.232;6.826;2022-07-11T09:10:19;19.40;99.90
37050;DHT22;22958;51.232;6.826;2022-07-11T09:13:04;19.60;99.90
37050;DHT22;22958;51.232;6.826;2022-07-11T09:15:40;19.60;99.90
37050;DHT22;22958;51.232;6.826;2022-07-11T09:18:41;19.10;99.90
37050;DHT22;22958;51.232;6.826;2022-07-11T09:23:56;19.30;99.90
37050;DHT22;22958;51.232;6.826;2022-07-11T09:26:46;19.60;99.90
37050;DHT22;22958;51.232;6.826;2022-07-11T09:29:14;19.50;99.90
37050;DHT22;22958;51.232;6.826;2022-07-11T09:31:41;19.60;99.90
37050;DHT22;22958;51.232;6.826;2022-07-11T09:34:09;19.80;99.90
37050;DHT22;22958;51.232;6.826;2022-07-11T09:36:42;20.10;99.90
37050;DHT22;22958;51.232;6.826;2022-07-11T09:39:14;20.50;99.90
37050;DHT22;22958;51.232;6.826;2022-07-11T09:41:41;20.60;99.90
37050;DHT22;22958;51.232;6.826;2022-07-11T09:44:08;20.10;99.90
37050;DHT22;22958;51.232;6.826;2022-07-11T09:46:34;20.00;99.90
37050;DHT22;22958;51.232;6.826;2022-07-11T09:49:00;19.70;99.90
37050;DHT22;22958;51.232;6.826;2022-07-11T09:51:27;19.80;99.90
37050;DHT22;22958;51.232;6.826;2022-07-11T09:53:56;20.10;99.90
37050;DHT22;22958;51.232;6.826;2022-07-11T09:56:39;20.50;99.90
37050;DHT22;22958;51.232;6.826;2022-07-11T09:59:06;20.50;99.90
37050;DHT22;22958;51.232;6.826;2022-07-11T10:01:32;20.30;99.90
37050;DHT22;22958;51.232;6.826;2022-07-11T10:03:58;20.00;99.90
37050;DHT22;22958;51.232;6.826;2022-07-11T10:06:25;20.00;99.90
37050;DHT22;22958;51.232;6.826;2022-07-11T10:08:51;20.30;99.90
37050;DHT22;22958;51.232;6.826;2022-07-11T10:11:18;20.30;99.90
37050;DHT22;22958;51.232;6.826;2022-07-11T10:13:44;19.90;99.90
37050;DHT22;22958;51.232;6.826;2022-07-11T10:21:43;20.20;99.90
37050;DHT22;22958;51.232;6.826;2022-07-11T10:24:45;20.20;99.90
37050;DHT22;22958;51.232;6.826;2022-07-11T10:27:25;20.50;99.90
37050;DHT22;22958;51.232;6.826;2022-07-11T10:29:53;19.80;99.90
37050;DHT22;22958;51.232;6.826;2022-07-11T10:32:19;19.80;99.90
37050;DHT22;22958;51.232;6.826;2022-07-11T10:34:45;19.80;99.90
37050;DHT22;22958;51.232;6.826;2022-07-11T10:37:13;19.80;99.90
37050;DHT22;22958;51.232;6.826;2022-07-11T10:39:39;19.70;99.90
37050;DHT22;22958;51.232;6.826;2022-07-11T10:42:19;20.00;99.90
37050;DHT22;22958;51.232;6.826;2022-07-11T10:44:54;19.90;99.90
37050;DHT22;22958;51.232;6.826;2022-07-11T10:47:40;19.90;99.90
37050;DHT22;22958;51.232;6.826;2022-07-11T10:52:37;19.90;99.90
37050;DHT22;22958;51.232;6.826;2022-07-11T10:55:47;19.90;99.90
37050;DHT22;22958;51.232;6.826;2022-07-11T10:58:41;20.00;99.90
37050;DHT22;22958;51.232;6.826;2022-07-11T11:01:11;20.50;99.90
37050;DHT22;22958;51.232;6.826;2022-07-11T11:03:38;21.00;99.90
37050;DHT22;22958;51.232;6.826;2022-07-11T11:06:04;21.30;99.90
37050;DHT22;22958;51.232;6.826;2022-07-11T11:13:44;21.00;99.90
37050;DHT22;22958;51.232;6.826;2022-07-11T11:16:21;21.10;99.90
37050;DHT22;22958;51.232;6.826;2022-07-11T11:18:48;21.20;99.90
37050;DHT22;22958;51.232;6.826;2022-07-11T11:21:18;21.10;99.90
37050;DHT22;22958;51.232;6.826;2022-07-11T11:26:48;20.70;99.90
37050;DHT22;22958;51.232;6.826;2022-07-11T11:29:25;20.60;99.90
37050;DHT22;22958;51.232;6.826;2022-07-11T11:31:54;20.70;99.90
37050;DHT22;22958;51.232;6.826;2022-07-11T11:34:20;21.00;99.90
37050;DHT22;22958;51.232;6.826;2022-07-11T11:36:58;21.20;99.90
37050;DHT22;22958;51.232;6.826;2022-07-11T11:39:26;21.30;99.90
37050;DHT22;22958;51.232;6.826;2022-07-11T11:41:52;21.10;99.90
37050;DHT22;22958;51.232;6.826;2022-07-11T11:44:18;21.20;99.90
37050;DHT22;22958;51.232;6.826;2022-07-11T11:46:43;21.20;99.90
37050;DHT22;22958;51.232;6.826;2022-07-11T11:49:09;20.70;99.90
37050;DHT22;22958;51.232;6.826;2022-07-11T11:51:35;20.30;99.90
37050;DHT22;22958;51.232;6.826;2022-07-11T11:54:02;20.30;99.90
37050;DHT22;22958;51.232;6.826;2022-07-11T11:56:30;20.20;99.90
37050;DHT22;22958;51.232;6.826;2022-07-11T11:59:01;20.30;99.90
37050;DHT22;22958;51.232;6.826;2022-07-11T12:01:31;20.50;99.90
37050;DHT22;22958;51.232;6.826;2022-07-11T12:04:04;20.40;99.90
37050;DHT22;22958;51.232;6.826;2022-07-11T12:06:35;20.40;99.90
37050;DHT22;22958;51.232;6.826;2022-07-11T12:09:11;20.60;99.90
37050;DHT22;22958;51.232;6.826;2022-07-11T12:11:39;20.70;99.90
37050;DHT22;22958;51.232;6.826;2022-07-11T12:14:07;20.70;99.90
37050;DHT22;22958;51.232;6.826;2022-07-11T12:16:46;20.50;99.90
37050;DHT22;22958;51.232;6.826;2022-07-11T12:19:16;20.50;99.90
37050;DHT22;22958;51.232;6.826;2022-07-11T12:21:44;20.50;99.90
37050;DHT22;22958;51.232;6.826;2022-07-11T12:24:21;20.50;99.90
37050;DHT22;22958;51.232;6.826;2022-07-11T12:26:47;20.90;99.90
37050;DHT22;22958;51.232;6.826;2022-07-11T12:29:20;20.90;99.90
37050;DHT22;22958;51.232;6.826;2022-07-11T12:34:19;21.10;99.90
37050;DHT22;22958;51.232;6.826;2022-07-11T12:36:45;21.30;99.90
37050;DHT22;22958;51.232;6.826;2022-07-11T12:39:29;21.80;99.90
37050;DHT22;22958;51.232;6.826;2022-07-11T12:41:57;22.10;99.90
37050;DHT22;22958;51.232;6.826;2022-07-11T12:44:30;21.50;99.90
37050;DHT22;22958;51.232;6.826;2022-07-11T12:47:16;21.50;99.90
37050;DHT22;22958;51.232;6.826;2022-07-11T12:49:48;22.00;99.90
37050;DHT22;22958;51.232;6.826;2022-07-11T12:52:14;21.70;99.90
37050;DHT22;22958;51.232;6.826;2022-07-11T12:54:41;21.70;99.90
37050;DHT22;22958;51.232;6.826;2022-07-11T12:57:09;21.70;99.90
37050;DHT22;22958;51.232;6.826;2022-07-11T12:59:39;21.80;99.90
37050;DHT22;22958;51.232;6.826;2022-07-11T13:02:06;21.80;99.90
37050;DHT22;22958;51.232;6.826;2022-07-11T13:04:34;22.00;99.90
37050;DHT22;22958;51.232;6.826;2022-07-11T13:10:10;22.00;99.90
37050;DHT22;22958;51.232;6.826;2022-07-11T13:12:36;21.80;99.90
37050;DHT22;22958;51.232;6.826;2022-07-11T13:15:06;21.80;99.90
37050;DHT22;22958;51.232;6.826;2022-07-11T13:17:40;21.50;99.90
37050;DHT22;22958;51.232;6.826;2022-07-11T13:20:08;21.50;99.90
37050;DHT22;22958;51.232;6.826;2022-07-11T13:22:34;21.50;99.90
37050;DHT22;22958;51.232;6.826;2022-07-11T13:25:00;21.70;99.90
37050;DHT22;22958;51.232;6.826;2022-07-11T13:27:25;22.10;99.90
37050;DHT22;22958;51.232;6.826;2022-07-11T13:29:51;22.10;99.90
37050;DHT22;22958;51.232;6.826;2022-07-11T13:32:16;21.90;99.90
37050;DHT22;22958;51.232;6.826;2022-07-11T13:34:42;21.60;99.90
37050;DHT22;22958;51.232;6.826;2022-07-11T13:37:07;21.50;99.90
37050;DHT22;22958;51.232;6.826;2022-07-11T13:39:33;21.70;99.90
37050;DHT22;22958;51.232;6.826;2022-07-11T13:41:58;21.60;99.90
37050;DHT22;22958;51.232;6.826;2022-07-11T13:44:24;21.50;99.90
37050;DHT22;22958;51.232;6.826;2022-07-11T13:46:49;21.40;99.90
37050;DHT22;22958;51.232;6.826;2022-07-11T13:49:15;21.40;99.90
37050;DHT22;22958;51.232;6.826;2022-07-11T13:51:40;21.20;99.90
37050;DHT22;22958;51.232;6.826;2022-07-11T13:54:06;21.50;99.90
37050;DHT22;22958;51.232;6.826;2022-07-11T13:56:31;21.80;99.90
37050;DHT22;22958;51.232;6.826;2022-07-11T13:58:57;21.50;99.90
37050;DHT22;22958;51.232;6.826;2022-07-11T14:01:22;21.90;99.90
37050;DHT22;22958;51.232;6.826;2022-07-11T14:03:48;22.10;99.90
37050;DHT22;22958;51.232;6.826;2022-07-11T14:06:13;22.10;99.90
37050;DHT22;22958;51.232;6.826;2022-07-11T14:08:39;22.20;99.90
37050;DHT22;22958;51.232;6.826;2022-07-11T14:11:04;22.40;99.90
37050;DHT22;22958;51.232;6.826;2022-07-11T14:13:30;22.00;99.90
37050;DHT22;22958;51.232;6.826;2022-07-11T14:15:56;21.90;99.90
37050;DHT22;22958;51.232;6.826;2022-07-11T14:18:22;22.20;99.90
37050;DHT22;22958;51.232;6.826;2022-07-11T14:20:47;22.00;99.90
37050;DHT22;22958;51.232;6.826;2022-07-11T14:23:12;21.60;99.90
37050;DHT22;22958;51.232;6.826;2022-07-11T14:25:41;21.40;99.90
37050;DHT22;22958;51.232;6.826;2022-07-11T14:28:06;21.50;99.90
37050;DHT22;22958;51.232;6.826;2022-07-11T14:30:32;21.80;99.90
37050;DHT22;22958;51.232;6.826;2022-07-11T14:32:59;21.90;99.90
37050;DHT22;22958;51.232;6.826;2022-07-11T14:35:25;21.70;99.90
37050;DHT22;22958;51.232;6.826;2022-07-11T14:37:51;21.70;99.90
37050;DHT22;22958;51.232;6.826;2022-07-11T14:40:16;21.60;99.90
37050;DHT22;22958;51.232;6.826;2022-07-11T14:42:42;21.70;99.90
37050;DHT22;22958;51.232;6.826;2022-07-11T14:45:08;21.50;99.90
37050;DHT22;22958;51.232;6.826;2022-07-11T14:47:34;21.50;99.90
37050;DHT22;22958;51.232;6.826;2022-07-11T14:50:00;21.70;99.90
37050;DHT22;22958;51.232;6.826;2022-07-11T14:52:25;21.70;99.90
37050;DHT22;22958;51.232;6.826;2022-07-11T14:54:51;22.00;99.90
37050;DHT22;22958;51.232;6.826;2022-07-11T14:57:17;21.80;99.90
37050;DHT22;22958;51.232;6.826;2022-07-11T14:59:43;21.90;99.90
37050;DHT22;22958;51.232;6.826;2022-07-11T15:02:08;21.90;99.90
37050;DHT22;22958;51.232;6.826;2022-07-11T15:04:34;22.20;99.90
37050;DHT22;22958;51.232;6.826;2022-07-11T15:06:59;22.20;99.90
37050;DHT22;22958;51.232;6.826;2022-07-11T15:09:44;22.20;99.90
37050;DHT22;22958;51.232;6.826;2022-07-11T15:12:28;22.20;99.90
37050;DHT22;22958;51.232;6.826;2022-07-11T15:14:54;22.10;99.90
37050;DHT22;22958;51.232;6.826;2022-07-11T15:17:20;21.70;99.90
37050;DHT22;22958;51.232;6.826;2022-07-11T15:19:47;21.70;99.90
37050;DHT22;22958;51.232;6.826;2022-07-11T15:22:12;21.70;99.90
37050;DHT22;22958;51.232;6.826;2022-07-11T15:24:38;21.70;99.90
37050;DHT22;22958;51.232;6.826;2022-07-11T15:27:04;22.00;99.90
37050;DHT22;22958;51.232;6.826;2022-07-11T15:29:29;22.30;99.90
37050;DHT22;22958;51.232;6.826;2022-07-11T15:31:55;22.60;99.90
37050;DHT22;22958;51.232;6.826;2022-07-11T15:34:21;22.70;99.90
37050;DHT22;22958;51.232;6.826;2022-07-11T15:36:47;23.00;99.90
37050;DHT22;22958;51.232;6.826;2022-07-11T15:39:13;22.90;99.90
37050;DHT22;22958;51.232;6.826;2022-07-11T15:41:38;23.00;99.90
37050;DHT22;22958;51.232;6.826;2022-07-11T15:44:04;23.10;99.90
37050;DHT22;22958;51.232;6.826;2022-07-11T15:46:30;23.10;99.90
37050;DHT22;22958;51.232;6.826;2022-07-11T15:48:55;23.00;99.90
37050;DHT22;22958;51.232;6.826;2022-07-11T15:51:21;23.20;99.90
37050;DHT22;22958;51.232;6.826;2022-07-11T15:53:46;23.40;99.90